Pagina principale
METAR-TAF:

METAR-TAF

Aeroporti :

Aeroporto di Pescara

Pescara, Italia

latitudine: 42-26N, longitudine: 014-12E, altezza: 10 m

Osservazione

Il bollettino è stato emesso 24 minuti fa, alle 11:50 UTC
Vento 3 kt da nord-ovest, variando fra ovest e nord
Temperature 9°C
Umidità 76%
Pressione 1014 hPa
Visibilità 10 km o più
Nubi sparse ad un'altezza di 1500 ft
Nuvoloso ad un'altezza di 5000 ft

METAR: LIBP 211150Z 32003KT 280V360 9999 SCT015 BKN050 09/05 Q1014

Ora: 13:14 (12:14 UTC)

Previsione

Il bollettino è stato emesso 1 ora e 14 minuti fa, alle 11:00 UTC
Previsione valida dal 21 alle 12 UTC al 22 alle 12 UTC
Vento 10 kt da ovest/nord-ovest
Visibilità 10 km o più
Nubi sparse ad un'altezza di 3000 ft
Temporaneamente
dal 21 alle 12 UTC al 21 alle 21 UTC
rovesci di pioggia
Temporaneamente
dal 22 alle 00 UTC al 22 alle 09 UTC
Visibilità: 4000 m
pioggia

TAF: LIBP 211100Z 2112/2212 29010KT 9999 SCT030 TEMPO 2112/2121 SHRA TEMPO 2200/2209 4000 RA

Osservazioni e previsioni meteorologiche di più di 4000 aeroporti (messaggi METAR e TAF).

Le stazioni disponibili sono rappresentate dai dischi gialli e rossi sulla carta.

Puntare il mouse per vedere il nome della stazione.

Clicca sopra per visualizzare le osservazioni e previsioni meteorologiche.

Per cambiare la mappa : fare clic sui pulsanti verdi con una croce nera per ingrandire, il pulsante verde con un trattino per diminuire, o sulla freccia verde per le mappe adiacenti.


METAR-TAF: